sensor_id;sensor_type;location;lat;lon;timestamp;pressure;altitude;pressure_sealevel;temperature;humidity
20043;BME280;10182;52.896;6.496;2023-12-28T00:03:37;100467.13;;;8.49;100.00
20043;BME280;10182;52.896;6.496;2023-12-28T00:08:42;100468.56;;;8.56;100.00
20043;BME280;10182;52.896;6.496;2023-12-28T00:13:44;100489.47;;;8.61;100.00
20043;BME280;10182;52.896;6.496;2023-12-28T00:18:45;100491.88;;;8.67;100.00
20043;BME280;10182;52.896;6.496;2023-12-28T00:23:49;100491.72;;;8.70;100.00
20043;BME280;10182;52.896;6.496;2023-12-28T00:28:50;100485.66;;;8.68;100.00
20043;BME280;10182;52.896;6.496;2023-12-28T00:33:52;100506.13;;;8.63;100.00
20043;BME280;10182;52.896;6.496;2023-12-28T00:38:55;100511.47;;;8.61;100.00
20043;BME280;10182;52.896;6.496;2023-12-28T00:43:57;100526.44;;;8.61;100.00
20043;BME280;10182;52.896;6.496;2023-12-28T00:48:58;100513.06;;;8.66;100.00
20043;BME280;10182;52.896;6.496;2023-12-28T00:54:01;100525.06;;;8.73;100.00
20043;BME280;10182;52.896;6.496;2023-12-28T00:59:03;100540.31;;;8.66;100.00
20043;BME280;10182;52.896;6.496;2023-12-28T01:04:05;100533.38;;;8.63;100.00
20043;BME280;10182;52.896;6.496;2023-12-28T01:09:08;100534.56;;;8.56;100.00
20043;BME280;10182;52.896;6.496;2023-12-28T01:14:10;100532.66;;;8.60;100.00
20043;BME280;10182;52.896;6.496;2023-12-28T01:19:11;100531.91;;;8.56;100.00
20043;BME280;10182;52.896;6.496;2023-12-28T01:24:14;100553.19;;;8.53;100.00
20043;BME280;10182;52.896;6.496;2023-12-28T01:29:16;100562.00;;;8.52;100.00
20043;BME280;10182;52.896;6.496;2023-12-28T01:34:18;100563.81;;;8.52;100.00
20043;BME280;10182;52.896;6.496;2023-12-28T01:39:21;100556.66;;;8.54;100.00
20043;BME280;10182;52.896;6.496;2023-12-28T01:44:22;100559.16;;;8.57;100.00
20043;BME280;10182;52.896;6.496;2023-12-28T01:49:25;100566.91;;;8.61;100.00
20043;BME280;10182;52.896;6.496;2023-12-28T01:54:29;100565.06;;;8.63;100.00
20043;BME280;10182;52.896;6.496;2023-12-28T01:59:31;100569.44;;;8.64;100.00
20043;BME280;10182;52.896;6.496;2023-12-28T02:04:33;100580.00;;;8.64;100.00
20043;BME280;10182;52.896;6.496;2023-12-28T02:09:36;100564.00;;;8.68;100.00
20043;BME280;10182;52.896;6.496;2023-12-28T02:14:38;100560.38;;;8.70;100.00
20043;BME280;10182;52.896;6.496;2023-12-28T02:19:43;100555.84;;;8.74;100.00
20043;BME280;10182;52.896;6.496;2023-12-28T02:25:08;100554.97;;;8.73;100.00
20043;BME280;10182;52.896;6.496;2023-12-28T02:30:13;100564.47;;;8.77;100.00
20043;BME280;10182;52.896;6.496;2023-12-28T02:35:19;100556.25;;;8.85;100.00
20043;BME280;10182;52.896;6.496;2023-12-28T02:40:24;100563.72;;;8.96;100.00
20043;BME280;10182;52.896;6.496;2023-12-28T02:45:26;100567.72;;;9.05;100.00
20043;BME280;10182;52.896;6.496;2023-12-28T02:50:28;100551.41;;;9.15;100.00
20043;BME280;10182;52.896;6.496;2023-12-28T02:55:32;100540.59;;;9.22;100.00
20043;BME280;10182;52.896;6.496;2023-12-28T03:00:33;100533.31;;;9.27;100.00
20043;BME280;10182;52.896;6.496;2023-12-28T03:05:35;100513.88;;;9.28;100.00
20043;BME280;10182;52.896;6.496;2023-12-28T03:10:39;100537.47;;;9.32;100.00
20043;BME280;10182;52.896;6.496;2023-12-28T03:15:40;100517.09;;;9.35;100.00
20043;BME280;10182;52.896;6.496;2023-12-28T03:20:42;100535.75;;;9.31;100.00
20043;BME280;10182;52.896;6.496;2023-12-28T03:25:45;100530.69;;;9.27;100.00
20043;BME280;10182;52.896;6.496;2023-12-28T03:30:47;100514.69;;;9.30;100.00
20043;BME280;10182;52.896;6.496;2023-12-28T03:35:48;100516.97;;;9.38;100.00
20043;BME280;10182;52.896;6.496;2023-12-28T03:40:52;100522.06;;;9.42;100.00
20043;BME280;10182;52.896;6.496;2023-12-28T03:45:55;100513.91;;;9.47;100.00
20043;BME280;10182;52.896;6.496;2023-12-28T03:50:57;100520.91;;;9.48;100.00
20043;BME280;10182;52.896;6.496;2023-12-28T03:56:00;100503.06;;;9.53;100.00
20043;BME280;10182;52.896;6.496;2023-12-28T04:01:02;100495.53;;;9.44;100.00
20043;BME280;10182;52.896;6.496;2023-12-28T04:06:04;100483.81;;;9.49;100.00
20043;BME280;10182;52.896;6.496;2023-12-28T04:11:07;100501.41;;;9.51;100.00
20043;BME280;10182;52.896;6.496;2023-12-28T04:16:12;100479.09;;;9.56;100.00
20043;BME280;10182;52.896;6.496;2023-12-28T04:21:14;100498.34;;;9.60;100.00
20043;BME280;10182;52.896;6.496;2023-12-28T04:26:19;100480.75;;;9.59;100.00
20043;BME280;10182;52.896;6.496;2023-12-28T04:31:21;100481.09;;;9.70;100.00
20043;BME280;10182;52.896;6.496;2023-12-28T04:36:22;100478.38;;;9.72;100.00
20043;BME280;10182;52.896;6.496;2023-12-28T04:41:26;100481.50;;;9.80;100.00
20043;BME280;10182;52.896;6.496;2023-12-28T04:46:27;100486.75;;;9.81;100.00
20043;BME280;10182;52.896;6.496;2023-12-28T04:51:29;100476.94;;;9.83;100.00
20043;BME280;10182;52.896;6.496;2023-12-28T04:56:32;100476.53;;;9.74;100.00
20043;BME280;10182;52.896;6.496;2023-12-28T05:01:40;100485.97;;;9.79;100.00
20043;BME280;10182;52.896;6.496;2023-12-28T05:06:42;100473.47;;;9.83;100.00
20043;BME280;10182;52.896;6.496;2023-12-28T05:11:45;100474.47;;;9.80;100.00
20043;BME280;10182;52.896;6.496;2023-12-28T05:16:46;100470.72;;;9.85;100.00
20043;BME280;10182;52.896;6.496;2023-12-28T05:21:48;100478.94;;;9.78;100.00
20043;BME280;10182;52.896;6.496;2023-12-28T05:26:51;100493.06;;;9.79;100.00
20043;BME280;10182;52.896;6.496;2023-12-28T05:31:53;100482.31;;;9.82;100.00
20043;BME280;10182;52.896;6.496;2023-12-28T05:36:54;100476.03;;;9.85;100.00
20043;BME280;10182;52.896;6.496;2023-12-28T05:41:58;100496.13;;;9.89;100.00
20043;BME280;10182;52.896;6.496;2023-12-28T05:46:59;100493.63;;;9.86;100.00
20043;BME280;10182;52.896;6.496;2023-12-28T05:52:01;100493.53;;;9.87;100.00
20043;BME280;10182;52.896;6.496;2023-12-28T05:57:04;100496.03;;;9.90;100.00
20043;BME280;10182;52.896;6.496;2023-12-28T06:02:06;100500.41;;;9.91;100.00
20043;BME280;10182;52.896;6.496;2023-12-28T06:07:08;100518.03;;;9.91;100.00
20043;BME280;10182;52.896;6.496;2023-12-28T06:12:11;100504.81;;;9.91;100.00
20043;BME280;10182;52.896;6.496;2023-12-28T06:17:13;100510.25;;;9.88;100.00
20043;BME280;10182;52.896;6.496;2023-12-28T06:22:15;100499.69;;;9.88;100.00
20043;BME280;10182;52.896;6.496;2023-12-28T06:27:18;100502.16;;;9.91;100.00
20043;BME280;10182;52.896;6.496;2023-12-28T06:32:20;100493.47;;;9.89;100.00
20043;BME280;10182;52.896;6.496;2023-12-28T06:37:22;100505.81;;;9.88;100.00
20043;BME280;10182;52.896;6.496;2023-12-28T06:42:27;100500.53;;;9.88;100.00
20043;BME280;10182;52.896;6.496;2023-12-28T06:47:29;100504.97;;;9.88;100.00
20043;BME280;10182;52.896;6.496;2023-12-28T06:52:30;100512.63;;;9.94;100.00
20043;BME280;10182;52.896;6.496;2023-12-28T06:57:34;100512.72;;;9.92;100.00
20043;BME280;10182;52.896;6.496;2023-12-28T07:02:36;100518.69;;;9.96;100.00
20043;BME280;10182;52.896;6.496;2023-12-28T07:07:38;100527.28;;;10.01;100.00
20043;BME280;10182;52.896;6.496;2023-12-28T07:12:41;100534.97;;;10.06;100.00
20043;BME280;10182;52.896;6.496;2023-12-28T07:17:43;100537.00;;;10.01;100.00
20043;BME280;10182;52.896;6.496;2023-12-28T07:22:45;100534.78;;;10.10;100.00
20043;BME280;10182;52.896;6.496;2023-12-28T07:27:48;100550.00;;;10.05;100.00
20043;BME280;10182;52.896;6.496;2023-12-28T07:32:50;100561.53;;;10.04;100.00
20043;BME280;10182;52.896;6.496;2023-12-28T07:37:51;100570.53;;;10.00;100.00
20043;BME280;10182;52.896;6.496;2023-12-28T07:42:56;100574.19;;;9.97;100.00
20043;BME280;10182;52.896;6.496;2023-12-28T07:47:59;100572.25;;;10.01;100.00
20043;BME280;10182;52.896;6.496;2023-12-28T07:53:00;100583.56;;;10.05;100.00
20043;BME280;10182;52.896;6.496;2023-12-28T07:58:04;100593.69;;;9.95;100.00
20043;BME280;10182;52.896;6.496;2023-12-28T08:03:06;100597.00;;;10.00;100.00
20043;BME280;10182;52.896;6.496;2023-12-28T08:08:07;100615.75;;;9.95;100.00
20043;BME280;10182;52.896;6.496;2023-12-28T08:13:10;100617.47;;;9.96;100.00
20043;BME280;10182;52.896;6.496;2023-12-28T08:18:12;100615.38;;;10.03;100.00
20043;BME280;10182;52.896;6.496;2023-12-28T08:23:13;100618.09;;;10.02;100.00
20043;BME280;10182;52.896;6.496;2023-12-28T08:28:17;100625.25;;;9.99;100.00
20043;BME280;10182;52.896;6.496;2023-12-28T08:33:18;100604.94;;;10.00;100.00
20043;BME280;10182;52.896;6.496;2023-12-28T08:38:20;100598.72;;;10.01;100.00
20043;BME280;10182;52.896;6.496;2023-12-28T08:43:23;100600.63;;;9.97;100.00
20043;BME280;10182;52.896;6.496;2023-12-28T08:48:25;100595.00;;;10.05;100.00
20043;BME280;10182;52.896;6.496;2023-12-28T08:53:26;100603.59;;;10.10;100.00
20043;BME280;10182;52.896;6.496;2023-12-28T08:58:29;100618.75;;;10.07;100.00
20043;BME280;10182;52.896;6.496;2023-12-28T09:03:31;100622.22;;;10.07;100.00
20043;BME280;10182;52.896;6.496;2023-12-28T09:08:33;100624.19;;;10.04;100.00
20043;BME280;10182;52.896;6.496;2023-12-28T09:13:36;100625.84;;;10.06;100.00
20043;BME280;10182;52.896;6.496;2023-12-28T09:18:38;100623.19;;;10.06;100.00
20043;BME280;10182;52.896;6.496;2023-12-28T09:23:40;100627.47;;;10.09;100.00
20043;BME280;10182;52.896;6.496;2023-12-28T09:28:43;100651.66;;;10.01;100.00
20043;BME280;10182;52.896;6.496;2023-12-28T09:33:45;100658.22;;;10.11;100.00
20043;BME280;10182;52.896;6.496;2023-12-28T09:38:47;100666.88;;;10.15;100.00
20043;BME280;10182;52.896;6.496;2023-12-28T09:43:54;100669.53;;;10.15;100.00
20043;BME280;10182;52.896;6.496;2023-12-28T09:48:55;100650.78;;;10.20;100.00
20043;BME280;10182;52.896;6.496;2023-12-28T09:53:57;100657.03;;;10.19;100.00
20043;BME280;10182;52.896;6.496;2023-12-28T09:59:02;100662.81;;;10.27;100.00
20043;BME280;10182;52.896;6.496;2023-12-28T10:04:05;100674.59;;;10.20;100.00
20043;BME280;10182;52.896;6.496;2023-12-28T10:09:09;100689.63;;;10.19;100.00
20043;BME280;10182;52.896;6.496;2023-12-28T10:14:12;100694.66;;;10.25;100.00
20043;BME280;10182;52.896;6.496;2023-12-28T10:19:13;100692.47;;;10.35;100.00
20043;BME280;10182;52.896;6.496;2023-12-28T10:24:15;100689.84;;;10.35;100.00
20043;BME280;10182;52.896;6.496;2023-12-28T10:29:18;100688.03;;;10.36;100.00
20043;BME280;10182;52.896;6.496;2023-12-28T10:34:20;100704.78;;;10.36;100.00
20043;BME280;10182;52.896;6.496;2023-12-28T10:39:24;100698.53;;;10.37;100.00
20043;BME280;10182;52.896;6.496;2023-12-28T10:44:28;100687.88;;;10.39;100.00
20043;BME280;10182;52.896;6.496;2023-12-28T10:49:35;100695.81;;;10.39;100.00
20043;BME280;10182;52.896;6.496;2023-12-28T10:54:44;100692.41;;;10.37;100.00
20043;BME280;10182;52.896;6.496;2023-12-28T10:59:52;100690.69;;;10.36;100.00
20043;BME280;10182;52.896;6.496;2023-12-28T11:05:00;100688.03;;;10.36;100.00
20043;BME280;10182;52.896;6.496;2023-12-28T11:10:05;100679.09;;;10.38;100.00
20043;BME280;10182;52.896;6.496;2023-12-28T11:15:10;100682.59;;;10.39;100.00
20043;BME280;10182;52.896;6.496;2023-12-28T11:20:13;100688.06;;;10.34;100.00
20043;BME280;10182;52.896;6.496;2023-12-28T11:25:16;100666.16;;;10.30;100.00
20043;BME280;10182;52.896;6.496;2023-12-28T11:30:20;100693.59;;;10.29;100.00
20043;BME280;10182;52.896;6.496;2023-12-28T11:35:21;100677.72;;;10.29;100.00
20043;BME280;10182;52.896;6.496;2023-12-28T11:40:23;100685.44;;;10.34;100.00
20043;BME280;10182;52.896;6.496;2023-12-28T11:45:26;100660.63;;;10.37;100.00
20043;BME280;10182;52.896;6.496;2023-12-28T11:50:28;100672.13;;;10.36;100.00
20043;BME280;10182;52.896;6.496;2023-12-28T11:55:30;100674.53;;;10.42;100.00
20043;BME280;10182;52.896;6.496;2023-12-28T12:00:33;100663.19;;;10.38;100.00
20043;BME280;10182;52.896;6.496;2023-12-28T12:05:35;100667.72;;;10.36;100.00
20043;BME280;10182;52.896;6.496;2023-12-28T12:10:37;100663.84;;;10.43;100.00
20043;BME280;10182;52.896;6.496;2023-12-28T12:15:40;100660.81;;;10.32;100.00
20043;BME280;10182;52.896;6.496;2023-12-28T12:20:42;100662.59;;;10.31;100.00
20043;BME280;10182;52.896;6.496;2023-12-28T12:25:43;100674.53;;;10.42;100.00
20043;BME280;10182;52.896;6.496;2023-12-28T12:30:51;100662.84;;;10.46;100.00
20043;BME280;10182;52.896;6.496;2023-12-28T12:35:56;100667.75;;;10.54;100.00
20043;BME280;10182;52.896;6.496;2023-12-28T12:40:58;100646.53;;;10.55;100.00
20043;BME280;10182;52.896;6.496;2023-12-28T12:46:01;100645.22;;;10.45;100.00
20043;BME280;10182;52.896;6.496;2023-12-28T12:51:03;100645.66;;;10.55;100.00
20043;BME280;10182;52.896;6.496;2023-12-28T12:56:05;100651.66;;;10.58;100.00
20043;BME280;10182;52.896;6.496;2023-12-28T13:01:11;100626.19;;;10.56;100.00
20043;BME280;10182;52.896;6.496;2023-12-28T13:06:13;100648.88;;;10.61;100.00
20043;BME280;10182;52.896;6.496;2023-12-28T13:11:14;100638.03;;;10.66;100.00
20043;BME280;10182;52.896;6.496;2023-12-28T13:16:17;100633.22;;;10.57;100.00
20043;BME280;10182;52.896;6.496;2023-12-28T13:21:19;100649.22;;;10.54;100.00
20043;BME280;10182;52.896;6.496;2023-12-28T13:26:21;100636.84;;;10.54;100.00
20043;BME280;10182;52.896;6.496;2023-12-28T13:31:24;100655.25;;;10.57;100.00
20043;BME280;10182;52.896;6.496;2023-12-28T13:36:26;100654.75;;;10.49;100.00
20043;BME280;10182;52.896;6.496;2023-12-28T13:41:28;100643.22;;;10.50;100.00
20043;BME280;10182;52.896;6.496;2023-12-28T13:46:33;100642.22;;;10.53;100.00
20043;BME280;10182;52.896;6.496;2023-12-28T13:51:34;100646.47;;;10.38;100.00
20043;BME280;10182;52.896;6.496;2023-12-28T13:56:36;100642.59;;;10.45;100.00
20043;BME280;10182;52.896;6.496;2023-12-28T14:01:40;100631.84;;;10.48;100.00
20043;BME280;10182;52.896;6.496;2023-12-28T14:06:41;100640.59;;;10.50;100.00
20043;BME280;10182;52.896;6.496;2023-12-28T14:11:43;100637.56;;;10.39;100.00
20043;BME280;10182;52.896;6.496;2023-12-28T14:16:46;100615.25;;;10.44;100.00
20043;BME280;10182;52.896;6.496;2023-12-28T14:21:48;100617.91;;;10.44;100.00
20043;BME280;10182;52.896;6.496;2023-12-28T14:26:53;100625.97;;;10.41;100.00
20043;BME280;10182;52.896;6.496;2023-12-28T14:31:57;100614.88;;;10.33;100.00
20043;BME280;10182;52.896;6.496;2023-12-28T14:36:59;100603.03;;;10.42;100.00
20043;BME280;10182;52.896;6.496;2023-12-28T14:42:01;100612.97;;;10.37;100.00
20043;BME280;10182;52.896;6.496;2023-12-28T14:47:05;100613.22;;;10.30;100.00
20043;BME280;10182;52.896;6.496;2023-12-28T14:52:07;100603.66;;;10.28;100.00
20043;BME280;10182;52.896;6.496;2023-12-28T14:57:09;100611.44;;;10.31;100.00
20043;BME280;10182;52.896;6.496;2023-12-28T15:02:13;100611.03;;;10.40;100.00
20043;BME280;10182;52.896;6.496;2023-12-28T15:07:15;100602.59;;;10.32;100.00
20043;BME280;10182;52.896;6.496;2023-12-28T15:12:17;100616.25;;;10.23;100.00
20043;BME280;10182;52.896;6.496;2023-12-28T15:17:21;100627.47;;;10.28;100.00
20043;BME280;10182;52.896;6.496;2023-12-28T15:22:24;100615.69;;;10.35;100.00
20043;BME280;10182;52.896;6.496;2023-12-28T15:27:25;100616.81;;;10.29;100.00
20043;BME280;10182;52.896;6.496;2023-12-28T15:32:28;100605.50;;;10.26;100.00
20043;BME280;10182;52.896;6.496;2023-12-28T15:37:30;100597.09;;;10.37;100.00
20043;BME280;10182;52.896;6.496;2023-12-28T15:42:32;100607.31;;;10.25;100.00
20043;BME280;10182;52.896;6.496;2023-12-28T15:47:37;100591.13;;;10.31;100.00
20043;BME280;10182;52.896;6.496;2023-12-28T15:52:38;100599.16;;;10.11;100.00
20043;BME280;10182;52.896;6.496;2023-12-28T15:57:40;100587.22;;;10.21;100.00
20043;BME280;10182;52.896;6.496;2023-12-28T16:02:43;100566.63;;;10.26;100.00
20043;BME280;10182;52.896;6.496;2023-12-28T16:07:45;100567.09;;;10.17;100.00
20043;BME280;10182;52.896;6.496;2023-12-28T16:12:47;100579.63;;;10.13;100.00
20043;BME280;10182;52.896;6.496;2023-12-28T16:17:51;100571.94;;;10.07;100.00
20043;BME280;10182;52.896;6.496;2023-12-28T16:22:57;100578.56;;;9.98;100.00
20043;BME280;10182;52.896;6.496;2023-12-28T16:27:59;100560.75;;;10.02;100.00
20043;BME280;10182;52.896;6.496;2023-12-28T16:33:02;100559.53;;;9.90;100.00
20043;BME280;10182;52.896;6.496;2023-12-28T16:38:04;100560.59;;;9.86;100.00
20043;BME280;10182;52.896;6.496;2023-12-28T16:43:06;100546.88;;;9.78;100.00
20043;BME280;10182;52.896;6.496;2023-12-28T16:48:09;100559.44;;;9.73;100.00
20043;BME280;10182;52.896;6.496;2023-12-28T16:53:11;100544.38;;;9.75;100.00
20043;BME280;10182;52.896;6.496;2023-12-28T16:58:13;100530.16;;;9.77;100.00
20043;BME280;10182;52.896;6.496;2023-12-28T17:03:16;100524.78;;;9.79;100.00
20043;BME280;10182;52.896;6.496;2023-12-28T17:08:18;100527.06;;;9.68;100.00
20043;BME280;10182;52.896;6.496;2023-12-28T17:13:20;100510.34;;;9.67;100.00
20043;BME280;10182;52.896;6.496;2023-12-28T17:18:24;100519.00;;;9.71;100.00
20043;BME280;10182;52.896;6.496;2023-12-28T17:23:35;100520.78;;;9.70;100.00
20043;BME280;10182;52.896;6.496;2023-12-28T17:28:45;100504.78;;;9.73;100.00
20043;BME280;10182;52.896;6.496;2023-12-28T17:33:50;100509.84;;;9.78;100.00
20043;BME280;10182;52.896;6.496;2023-12-28T17:38:52;100508.47;;;9.88;100.00
20043;BME280;10182;52.896;6.496;2023-12-28T17:43:56;100508.91;;;9.98;100.00
20043;BME280;10182;52.896;6.496;2023-12-28T17:49:02;100505.31;;;9.99;100.00
20043;BME280;10182;52.896;6.496;2023-12-28T17:54:07;100512.56;;;9.95;100.00
20043;BME280;10182;52.896;6.496;2023-12-28T17:59:09;100503.75;;;9.95;100.00
20043;BME280;10182;52.896;6.496;2023-12-28T18:04:12;100490.03;;;9.87;100.00
20043;BME280;10182;52.896;6.496;2023-12-28T18:09:14;100497.97;;;9.87;100.00
20043;BME280;10182;52.896;6.496;2023-12-28T18:14:16;100479.25;;;9.91;100.00
20043;BME280;10182;52.896;6.496;2023-12-28T18:19:21;100449.13;;;9.94;100.00
20043;BME280;10182;52.896;6.496;2023-12-28T18:24:23;100456.91;;;9.97;100.00
20043;BME280;10182;52.896;6.496;2023-12-28T18:29:27;100478.41;;;10.08;100.00
20043;BME280;10182;52.896;6.496;2023-12-28T18:34:30;100468.69;;;10.09;100.00
20043;BME280;10182;52.896;6.496;2023-12-28T18:39:32;100459.13;;;10.06;100.00
20043;BME280;10182;52.896;6.496;2023-12-28T18:44:37;100452.75;;;10.10;100.00
20043;BME280;10182;52.896;6.496;2023-12-28T18:49:40;100464.31;;;10.08;100.00
20043;BME280;10182;52.896;6.496;2023-12-28T18:54:42;100464.31;;;10.08;100.00
20043;BME280;10182;52.896;6.496;2023-12-28T18:59:44;100468.63;;;10.10;100.00
20043;BME280;10182;52.896;6.496;2023-12-28T19:04:47;100464.50;;;10.05;100.00
20043;BME280;10182;52.896;6.496;2023-12-28T19:09:48;100461.84;;;10.05;100.00
20043;BME280;10182;52.896;6.496;2023-12-28T19:14:50;100461.59;;;10.09;100.00
20043;BME280;10182;52.896;6.496;2023-12-28T19:19:53;100448.81;;;10.00;100.00
20043;BME280;10182;52.896;6.496;2023-12-28T19:24:55;100460.41;;;9.97;100.00
20043;BME280;10182;52.896;6.496;2023-12-28T19:29:57;100452.53;;;9.96;100.00
20043;BME280;10182;52.896;6.496;2023-12-28T19:35:00;100458.25;;;10.06;100.00
20043;BME280;10182;52.896;6.496;2023-12-28T19:40:03;100450.94;;;10.11;100.00
20043;BME280;10182;52.896;6.496;2023-12-28T19:45:06;100429.53;;;10.15;100.00
20043;BME280;10182;52.896;6.496;2023-12-28T19:50:10;100438.56;;;10.11;100.00
20043;BME280;10182;52.896;6.496;2023-12-28T19:55:14;100424.31;;;10.14;100.00
20043;BME280;10182;52.896;6.496;2023-12-28T20:00:16;100424.84;;;10.03;100.00
20043;BME280;10182;52.896;6.496;2023-12-28T20:05:21;100417.47;;;9.92;100.00
20043;BME280;10182;52.896;6.496;2023-12-28T20:10:23;100406.47;;;10.00;100.00
20043;BME280;10182;52.896;6.496;2023-12-28T20:15:25;100390.69;;;9.98;100.00
20043;BME280;10182;52.896;6.496;2023-12-28T20:20:28;100398.50;;;9.82;100.00
20043;BME280;10182;52.896;6.496;2023-12-28T20:25:30;100387.84;;;9.67;100.00
20043;BME280;10182;52.896;6.496;2023-12-28T20:30:35;100399.09;;;9.70;100.00
20043;BME280;10182;52.896;6.496;2023-12-28T20:35:39;100381.59;;;9.68;100.00
20043;BME280;10182;52.896;6.496;2023-12-28T20:40:40;100359.31;;;9.73;100.00
20043;BME280;10182;52.896;6.496;2023-12-28T20:45:42;100353.06;;;9.74;100.00
20043;BME280;10182;52.896;6.496;2023-12-28T20:50:45;100354.63;;;9.78;100.00
20043;BME280;10182;52.896;6.496;2023-12-28T20:55:47;100355.25;;;9.83;100.00
20043;BME280;10182;52.896;6.496;2023-12-28T21:00:49;100362.91;;;9.90;100.00
20043;BME280;10182;52.896;6.496;2023-12-28T21:05:52;100338.84;;;9.94;100.00
20043;BME280;10182;52.896;6.496;2023-12-28T21:10:53;100321.97;;;9.97;100.00
20043;BME280;10182;52.896;6.496;2023-12-28T21:15:57;100330.75;;;9.97;100.00
20043;BME280;10182;52.896;6.496;2023-12-28T21:21:00;100328.81;;;10.01;100.00
20043;BME280;10182;52.896;6.496;2023-12-28T21:26:03;100332.94;;;10.07;100.00
20043;BME280;10182;52.896;6.496;2023-12-28T21:31:05;100340.41;;;9.98;100.00
20043;BME280;10182;52.896;6.496;2023-12-28T21:36:08;100340.84;;;9.72;100.00
20043;BME280;10182;52.896;6.496;2023-12-28T21:41:10;100316.44;;;9.67;100.00
20043;BME280;10182;52.896;6.496;2023-12-28T21:46:14;100332.50;;;9.62;100.00
20043;BME280;10182;52.896;6.496;2023-12-28T21:51:17;100326.84;;;9.70;100.00
20043;BME280;10182;52.896;6.496;2023-12-28T21:56:19;100324.38;;;9.67;100.00
20043;BME280;10182;52.896;6.496;2023-12-28T22:01:21;100342.00;;;9.66;100.00
20043;BME280;10182;52.896;6.496;2023-12-28T22:06:24;100340.84;;;9.54;100.00
20043;BME280;10182;52.896;6.496;2023-12-28T22:11:26;100307.06;;;9.42;100.00
20043;BME280;10182;52.896;6.496;2023-12-28T22:16:27;100326.19;;;9.47;100.00
20043;BME280;10182;52.896;6.496;2023-12-28T22:21:31;100323.41;;;9.50;100.00
20043;BME280;10182;52.896;6.496;2023-12-28T22:26:32;100339.88;;;9.38;100.00
20043;BME280;10182;52.896;6.496;2023-12-28T22:31:37;100336.66;;;9.31;100.00
20043;BME280;10182;52.896;6.496;2023-12-28T22:36:40;100326.44;;;9.23;100.00
20043;BME280;10182;52.896;6.496;2023-12-28T22:41:41;100351.81;;;9.27;100.00
20043;BME280;10182;52.896;6.496;2023-12-28T22:46:43;100361.72;;;9.22;100.00
20043;BME280;10182;52.896;6.496;2023-12-28T22:51:46;100350.00;;;9.09;100.00
20043;BME280;10182;52.896;6.496;2023-12-28T22:56:48;100348.00;;;9.14;100.00
20043;BME280;10182;52.896;6.496;2023-12-28T23:01:51;100347.16;;;9.13;100.00
20043;BME280;10182;52.896;6.496;2023-12-28T23:06:54;100339.81;;;9.20;100.00
20043;BME280;10182;52.896;6.496;2023-12-28T23:11:55;100322.44;;;9.34;100.00
20043;BME280;10182;52.896;6.496;2023-12-28T23:16:57;100321.38;;;9.38;100.00
20043;BME280;10182;52.896;6.496;2023-12-28T23:22:00;100318.50;;;9.42;100.00
20043;BME280;10182;52.896;6.496;2023-12-28T23:27:02;100314.13;;;9.41;100.00
20043;BME280;10182;52.896;6.496;2023-12-28T23:32:05;100305.13;;;9.45;100.00
20043;BME280;10182;52.896;6.496;2023-12-28T23:37:08;100317.16;;;9.51;100.00
20043;BME280;10182;52.896;6.496;2023-12-28T23:42:10;100316.66;;;9.62;100.00
20043;BME280;10182;52.896;6.496;2023-12-28T23:47:11;100315.56;;;9.66;100.00
20043;BME280;10182;52.896;6.496;2023-12-28T23:52:14;100305.69;;;9.70;100.00
20043;BME280;10182;52.896;6.496;2023-12-28T23:57:16;100320.00;;;9.65;100.00
